Startpagina
METAR-TAF:

METAR-TAF

Vliegvelden :

Lyon, Frankrijk

breedte: 45-43N, lengte: 004-57E, hoogte: 200 m

Actueel weer

Dit bericht is 11 minuten geleden gemaakt, om 13:00 UTC
Wind 4 kt uit het zuiden, variërend tussen het oosten en het zuidwesten
Temperatuur 25°C
Vochtigheid 28%
Druk 1021 hPa
Zicht 10 km of meer
geen wolken onder 1500 m en geen cumulonimbus

METAR: LFLY 101300Z AUTO 17004KT 100V230 CAVOK 25/05 Q1021

Tijdstip: 15:11 (13:11 UTC)


TAF: ontbreekt

Waarnemingen en weersverwachtingen van meer dan 4000 vliegvelden (METAR en TAF).

De beschikbare stations zijn de gele en rode punten op de kaart.

Ga met uw muis naar het station om de naam te zien.

Klik dan om waarnemingen en weersverwachtingen te zien.

kaart wijzigen: klik op de groene knoppen met een zwart kruis om in te zoomen, op de groene knop met een streepje om uit te zoomen of op de groene pijlen voor aangrenzende kaarten.


METAR-TAF: